sensor_id;sensor_type;location;lat;lon;timestamp;P1;durP1;ratioP1;P2;durP2;ratioP2
15151;SDS011;7676;50.900;6.234;2022-08-11T00:05:10;3.67;;;2.30;;
15151;SDS011;7676;50.900;6.234;2022-08-11T00:10:19;3.77;;;2.00;;
15151;SDS011;7676;50.900;6.234;2022-08-11T00:15:25;2.40;;;2.20;;
15151;SDS011;7676;50.900;6.234;2022-08-11T00:20:31;3.53;;;2.47;;
15151;SDS011;7676;50.900;6.234;2022-08-11T00:25:40;3.37;;;2.43;;
15151;SDS011;7676;50.900;6.234;2022-08-11T00:30:47;3.07;;;2.13;;
15151;SDS011;7676;50.900;6.234;2022-08-11T00:35:51;3.17;;;2.30;;
15151;SDS011;7676;50.900;6.234;2022-08-11T01:59:07;5.30;;;2.97;;
15151;SDS011;7676;50.900;6.234;2022-08-11T02:04:32;4.17;;;2.50;;
15151;SDS011;7676;50.900;6.234;2022-08-11T02:20:41;4.53;;;2.53;;
15151;SDS011;7676;50.900;6.234;2022-08-11T02:31:16;4.83;;;2.83;;
15151;SDS011;7676;50.900;6.234;2022-08-11T02:47:57;6.30;;;3.10;;
15151;SDS011;7676;50.900;6.234;2022-08-11T02:59:03;6.27;;;3.10;;
15151;SDS011;7676;50.900;6.234;2022-08-11T03:04:54;5.67;;;3.20;;
15151;SDS011;7676;50.900;6.234;2022-08-11T03:15:24;4.53;;;3.00;;
15151;SDS011;7676;50.900;6.234;2022-08-11T03:26:30;5.23;;;3.30;;
15151;SDS011;7676;50.900;6.234;2022-08-11T03:31:57;8.53;;;3.80;;
15151;SDS011;7676;50.900;6.234;2022-08-11T03:42:57;6.70;;;3.63;;
15151;SDS011;7676;50.900;6.234;2022-08-11T03:48:19;4.33;;;3.40;;
15151;SDS011;7676;50.900;6.234;2022-08-11T04:04:28;5.87;;;4.00;;
15151;SDS011;7676;50.900;6.234;2022-08-11T04:21:19;9.93;;;4.17;;
15151;SDS011;7676;50.900;6.234;2022-08-11T04:37:48;7.37;;;3.77;;
15151;SDS011;7676;50.900;6.234;2022-08-11T05:00:06;7.10;;;3.70;;
15151;SDS011;7676;50.900;6.234;2022-08-11T05:22:02;7.77;;;4.00;;
15151;SDS011;7676;50.900;6.234;2022-08-11T05:27:35;5.30;;;3.60;;
15151;SDS011;7676;50.900;6.234;2022-08-11T05:38:32;6.33;;;3.57;;
15151;SDS011;7676;50.900;6.234;2022-08-11T05:43:59;6.37;;;4.07;;
15151;SDS011;7676;50.900;6.234;2022-08-11T05:49:24;6.93;;;4.20;;
15151;SDS011;7676;50.900;6.234;2022-08-11T05:54:49;6.30;;;3.90;;
15151;SDS011;7676;50.900;6.234;2022-08-11T06:00:11;10.03;;;4.20;;
15151;SDS011;7676;50.900;6.234;2022-08-11T06:05:31;8.73;;;4.53;;
15151;SDS011;7676;50.900;6.234;2022-08-11T06:10:45;7.30;;;3.90;;
15151;SDS011;7676;50.900;6.234;2022-08-11T06:15:48;10.33;;;4.30;;
15151;SDS011;7676;50.900;6.234;2022-08-11T06:20:54;4.10;;;3.40;;
15151;SDS011;7676;50.900;6.234;2022-08-11T06:25:58;7.97;;;4.20;;
15151;SDS011;7676;50.900;6.234;2022-08-11T06:31:10;6.60;;;3.80;;
15151;SDS011;7676;50.900;6.234;2022-08-11T06:41:32;9.70;;;3.83;;
15151;SDS011;7676;50.900;6.234;2022-08-11T06:46:46;6.33;;;3.53;;
15151;SDS011;7676;50.900;6.234;2022-08-11T06:51:52;11.17;;;4.07;;
15151;SDS011;7676;50.900;6.234;2022-08-11T06:57:03;5.97;;;3.67;;
15151;SDS011;7676;50.900;6.234;2022-08-11T07:02:47;11.13;;;4.07;;
15151;SDS011;7676;50.900;6.234;2022-08-11T07:13:37;6.77;;;3.73;;
15151;SDS011;7676;50.900;6.234;2022-08-11T07:19:04;6.03;;;3.33;;
15151;SDS011;7676;50.900;6.234;2022-08-11T07:24:28;5.27;;;3.27;;
15151;SDS011;7676;50.900;6.234;2022-08-11T07:30:05;7.47;;;3.20;;
15151;SDS011;7676;50.900;6.234;2022-08-11T07:35:10;5.23;;;3.20;;
15151;SDS011;7676;50.900;6.234;2022-08-11T07:40:20;6.03;;;2.97;;
15151;SDS011;7676;50.900;6.234;2022-08-11T07:45:25;4.97;;;3.47;;
15151;SDS011;7676;50.900;6.234;2022-08-11T07:50:46;5.07;;;2.90;;
15151;SDS011;7676;50.900;6.234;2022-08-11T07:56:08;5.23;;;3.20;;
15151;SDS011;7676;50.900;6.234;2022-08-11T08:01:18;2.93;;;2.73;;
15151;SDS011;7676;50.900;6.234;2022-08-11T08:06:42;5.47;;;2.93;;
15151;SDS011;7676;50.900;6.234;2022-08-11T08:12:05;4.43;;;2.73;;
15151;SDS011;7676;50.900;6.234;2022-08-11T08:17:28;4.50;;;2.80;;
15151;SDS011;7676;50.900;6.234;2022-08-11T08:23:12;5.47;;;3.37;;
15151;SDS011;7676;50.900;6.234;2022-08-11T08:28:15;4.23;;;2.97;;
15151;SDS011;7676;50.900;6.234;2022-08-11T08:33:38;3.37;;;3.07;;
15151;SDS011;7676;50.900;6.234;2022-08-11T08:38:47;4.27;;;3.10;;
15151;SDS011;7676;50.900;6.234;2022-08-11T08:43:52;3.20;;;2.90;;
15151;SDS011;7676;50.900;6.234;2022-08-11T08:49:21;3.00;;;2.73;;
15151;SDS011;7676;50.900;6.234;2022-08-11T08:54:32;4.03;;;3.00;;
15151;SDS011;7676;50.900;6.234;2022-08-11T08:59:41;7.37;;;3.53;;
15151;SDS011;7676;50.900;6.234;2022-08-11T09:04:50;4.50;;;2.87;;
15151;SDS011;7676;50.900;6.234;2022-08-11T09:09:55;4.93;;;3.20;;
15151;SDS011;7676;50.900;6.234;2022-08-11T09:15:00;3.63;;;2.53;;
15151;SDS011;7676;50.900;6.234;2022-08-11T09:20:14;4.80;;;2.70;;
15151;SDS011;7676;50.900;6.234;2022-08-11T09:25:27;6.57;;;2.67;;
15151;SDS011;7676;50.900;6.234;2022-08-11T09:30:51;5.10;;;2.43;;
15151;SDS011;7676;50.900;6.234;2022-08-11T09:35:54;3.10;;;2.50;;
15151;SDS011;7676;50.900;6.234;2022-08-11T09:40:58;3.23;;;2.43;;
15151;SDS011;7676;50.900;6.234;2022-08-11T09:46:04;2.67;;;2.40;;
15151;SDS011;7676;50.900;6.234;2022-08-11T09:51:08;3.47;;;2.30;;
15151;SDS011;7676;50.900;6.234;2022-08-11T09:56:15;2.55;;;2.10;;
15151;SDS011;7676;50.900;6.234;2022-08-11T10:01:40;4.35;;;2.50;;
15151;SDS011;7676;50.900;6.234;2022-08-11T10:06:49;2.47;;;2.00;;
15151;SDS011;7676;50.900;6.234;2022-08-11T10:12:07;6.45;;;2.60;;
15151;SDS011;7676;50.900;6.234;2022-08-11T10:17:34;2.33;;;2.13;;
15151;SDS011;7676;50.900;6.234;2022-08-11T10:22:40;2.80;;;2.50;;
15151;SDS011;7676;50.900;6.234;2022-08-11T10:28:03;2.53;;;2.20;;
15151;SDS011;7676;50.900;6.234;2022-08-11T10:33:27;2.72;;;1.95;;
15151;SDS011;7676;50.900;6.234;2022-08-11T10:39:02;2.85;;;2.10;;
15151;SDS011;7676;50.900;6.234;2022-08-11T10:44:06;3.38;;;2.28;;
15151;SDS011;7676;50.900;6.234;2022-08-11T10:49:11;4.22;;;2.40;;
15151;SDS011;7676;50.900;6.234;2022-08-11T10:54:14;4.55;;;2.33;;
15151;SDS011;7676;50.900;6.234;2022-08-11T10:59:35;2.72;;;2.10;;
15151;SDS011;7676;50.900;6.234;2022-08-11T11:04:43;3.63;;;2.40;;
15151;SDS011;7676;50.900;6.234;2022-08-11T11:09:53;4.07;;;2.20;;
15151;SDS011;7676;50.900;6.234;2022-08-11T11:15:03;3.67;;;2.20;;
15151;SDS011;7676;50.900;6.234;2022-08-11T11:36:54;2.35;;;2.10;;
15151;SDS011;7676;50.900;6.234;2022-08-11T11:42:00;4.80;;;2.00;;
15151;SDS011;7676;50.900;6.234;2022-08-11T11:47:06;2.25;;;1.90;;
15151;SDS011;7676;50.900;6.234;2022-08-11T11:52:13;2.53;;;2.10;;
15151;SDS011;7676;50.900;6.234;2022-08-11T11:57:28;3.30;;;2.30;;
15151;SDS011;7676;50.900;6.234;2022-08-11T12:03:06;4.43;;;2.45;;
15151;SDS011;7676;50.900;6.234;2022-08-11T12:08:12;2.40;;;2.05;;
15151;SDS011;7676;50.900;6.234;2022-08-11T12:13:17;3.55;;;2.35;;
15151;SDS011;7676;50.900;6.234;2022-08-11T12:18:39;3.28;;;2.15;;
15151;SDS011;7676;50.900;6.234;2022-08-11T12:23:44;2.58;;;1.98;;
15151;SDS011;7676;50.900;6.234;2022-08-11T12:29:09;4.43;;;2.20;;
15151;SDS011;7676;50.900;6.234;2022-08-11T12:34:16;2.97;;;2.22;;
15151;SDS011;7676;50.900;6.234;2022-08-11T12:39:20;3.22;;;2.25;;
15151;SDS011;7676;50.900;6.234;2022-08-11T12:45:08;2.40;;;2.15;;
15151;SDS011;7676;50.900;6.234;2022-08-11T12:50:30;4.15;;;2.30;;
15151;SDS011;7676;50.900;6.234;2022-08-11T12:55:54;5.28;;;2.63;;
15151;SDS011;7676;50.900;6.234;2022-08-11T13:01:17;5.18;;;2.58;;
15151;SDS011;7676;50.900;6.234;2022-08-11T13:06:39;3.60;;;2.50;;
15151;SDS011;7676;50.900;6.234;2022-08-11T13:11:43;2.92;;;2.63;;
15151;SDS011;7676;50.900;6.234;2022-08-11T13:17:04;2.92;;;2.45;;
15151;SDS011;7676;50.900;6.234;2022-08-11T13:22:42;3.65;;;2.65;;
15151;SDS011;7676;50.900;6.234;2022-08-11T13:27:48;4.20;;;2.30;;
15151;SDS011;7676;50.900;6.234;2022-08-11T13:32:56;3.70;;;2.78;;
15151;SDS011;7676;50.900;6.234;2022-08-11T13:38:00;2.50;;;2.30;;
15151;SDS011;7676;50.900;6.234;2022-08-11T13:43:20;3.20;;;2.40;;
15151;SDS011;7676;50.900;6.234;2022-08-11T13:48:24;4.15;;;2.50;;
15151;SDS011;7676;50.900;6.234;2022-08-11T13:53:29;3.40;;;2.58;;
15151;SDS011;7676;50.900;6.234;2022-08-11T13:58:33;3.88;;;2.05;;
15151;SDS011;7676;50.900;6.234;2022-08-11T14:03:41;2.30;;;2.10;;
15151;SDS011;7676;50.900;6.234;2022-08-11T14:09:07;2.80;;;2.22;;
15151;SDS011;7676;50.900;6.234;2022-08-11T14:14:11;2.67;;;2.47;;
15151;SDS011;7676;50.900;6.234;2022-08-11T14:19:20;2.72;;;2.20;;
15151;SDS011;7676;50.900;6.234;2022-08-11T14:24:25;4.95;;;2.60;;
15151;SDS011;7676;50.900;6.234;2022-08-11T14:29:28;2.85;;;2.55;;
15151;SDS011;7676;50.900;6.234;2022-08-11T14:34:47;2.30;;;2.00;;
15151;SDS011;7676;50.900;6.234;2022-08-11T14:39:57;2.75;;;2.55;;
15151;SDS011;7676;50.900;6.234;2022-08-11T14:50:48;3.28;;;2.55;;
15151;SDS011;7676;50.900;6.234;2022-08-11T14:55:51;4.80;;;2.65;;
15151;SDS011;7676;50.900;6.234;2022-08-11T15:01:13;2.63;;;2.35;;
15151;SDS011;7676;50.900;6.234;2022-08-11T15:06:34;4.32;;;2.50;;
15151;SDS011;7676;50.900;6.234;2022-08-11T15:11:38;2.88;;;2.47;;
15151;SDS011;7676;50.900;6.234;2022-08-11T15:16:59;2.38;;;2.15;;
15151;SDS011;7676;50.900;6.234;2022-08-11T15:22:08;2.85;;;2.40;;
15151;SDS011;7676;50.900;6.234;2022-08-11T15:27:30;4.15;;;2.58;;
15151;SDS011;7676;50.900;6.234;2022-08-11T15:32:53;4.65;;;2.78;;
15151;SDS011;7676;50.900;6.234;2022-08-11T15:38:16;2.92;;;2.60;;
15151;SDS011;7676;50.900;6.234;2022-08-11T15:43:22;2.75;;;2.55;;
15151;SDS011;7676;50.900;6.234;2022-08-11T15:48:48;3.33;;;2.50;;
15151;SDS011;7676;50.900;6.234;2022-08-11T15:53:58;3.05;;;2.70;;
15151;SDS011;7676;50.900;6.234;2022-08-11T15:59:11;3.17;;;2.47;;
15151;SDS011;7676;50.900;6.234;2022-08-11T16:04:44;4.25;;;3.10;;
15151;SDS011;7676;50.900;6.234;2022-08-11T16:09:56;2.95;;;2.50;;
15151;SDS011;7676;50.900;6.234;2022-08-11T16:15:08;2.67;;;2.40;;
15151;SDS011;7676;50.900;6.234;2022-08-11T16:20:29;2.60;;;2.40;;
15151;SDS011;7676;50.900;6.234;2022-08-11T16:25:34;3.58;;;2.50;;
15151;SDS011;7676;50.900;6.234;2022-08-11T16:30:56;4.03;;;2.60;;
15151;SDS011;7676;50.900;6.234;2022-08-11T16:35:59;3.55;;;2.85;;
15151;SDS011;7676;50.900;6.234;2022-08-11T16:41:23;3.67;;;2.85;;
15151;SDS011;7676;50.900;6.234;2022-08-11T16:46:45;3.05;;;2.58;;
15151;SDS011;7676;50.900;6.234;2022-08-11T16:52:02;4.20;;;2.80;;
15151;SDS011;7676;50.900;6.234;2022-08-11T16:57:08;3.58;;;2.65;;
15151;SDS011;7676;50.900;6.234;2022-08-11T17:02:44;4.25;;;2.50;;
15151;SDS011;7676;50.900;6.234;2022-08-11T17:08:08;2.88;;;2.55;;
15151;SDS011;7676;50.900;6.234;2022-08-11T17:13:41;3.83;;;2.75;;
15151;SDS011;7676;50.900;6.234;2022-08-11T17:19:07;4.22;;;2.83;;
15151;SDS011;7676;50.900;6.234;2022-08-11T17:24:15;5.97;;;2.70;;
15151;SDS011;7676;50.900;6.234;2022-08-11T17:29:19;2.88;;;2.67;;
15151;SDS011;7676;50.900;6.234;2022-08-11T17:34:25;3.38;;;2.60;;
15151;SDS011;7676;50.900;6.234;2022-08-11T17:39:47;3.00;;;2.70;;
15151;SDS011;7676;50.900;6.234;2022-08-11T17:44:51;2.72;;;2.53;;
15151;SDS011;7676;50.900;6.234;2022-08-11T17:50:14;3.63;;;2.70;;
15151;SDS011;7676;50.900;6.234;2022-08-11T17:55:19;3.70;;;2.42;;
15151;SDS011;7676;50.900;6.234;2022-08-11T18:00:55;2.90;;;2.58;;
15151;SDS011;7676;50.900;6.234;2022-08-11T18:06:10;2.60;;;2.30;;
15151;SDS011;7676;50.900;6.234;2022-08-11T18:11:15;3.25;;;2.78;;
15151;SDS011;7676;50.900;6.234;2022-08-11T18:16:56;5.50;;;2.90;;
15151;SDS011;7676;50.900;6.234;2022-08-11T18:22:21;3.65;;;2.50;;
15151;SDS011;7676;50.900;6.234;2022-08-11T18:27:44;4.95;;;2.80;;
15151;SDS011;7676;50.900;6.234;2022-08-11T18:33:07;3.83;;;3.10;;
15151;SDS011;7676;50.900;6.234;2022-08-11T18:38:50;5.82;;;2.90;;
15151;SDS011;7676;50.900;6.234;2022-08-11T18:44:12;4.88;;;3.20;;
15151;SDS011;7676;50.900;6.234;2022-08-11T18:49:35;4.70;;;2.83;;
15151;SDS011;7676;50.900;6.234;2022-08-11T18:55:12;3.15;;;2.60;;
15151;SDS011;7676;50.900;6.234;2022-08-11T19:00:37;4.97;;;3.30;;
15151;SDS011;7676;50.900;6.234;2022-08-11T19:06:03;6.95;;;3.00;;
15151;SDS011;7676;50.900;6.234;2022-08-11T19:11:41;2.90;;;2.60;;
15151;SDS011;7676;50.900;6.234;2022-08-11T19:17:04;4.77;;;2.83;;
15151;SDS011;7676;50.900;6.234;2022-08-11T19:22:46;5.57;;;2.87;;
15151;SDS011;7676;50.900;6.234;2022-08-11T19:28:08;4.15;;;2.50;;
15151;SDS011;7676;50.900;6.234;2022-08-11T19:33:31;5.00;;;2.90;;
15151;SDS011;7676;50.900;6.234;2022-08-11T19:39:10;4.38;;;3.10;;
15151;SDS011;7676;50.900;6.234;2022-08-11T19:44:33;3.50;;;3.00;;
15151;SDS011;7676;50.900;6.234;2022-08-11T19:49:54;4.13;;;3.10;;
15151;SDS011;7676;50.900;6.234;2022-08-11T19:55:25;6.17;;;3.00;;
15151;SDS011;7676;50.900;6.234;2022-08-11T20:00:47;3.85;;;3.33;;
15151;SDS011;7676;50.900;6.234;2022-08-11T20:06:08;3.73;;;3.40;;
15151;SDS011;7676;50.900;6.234;2022-08-11T20:11:32;3.00;;;2.80;;
15151;SDS011;7676;50.900;6.234;2022-08-11T20:17:02;6.80;;;3.37;;
15151;SDS011;7676;50.900;6.234;2022-08-11T20:22:24;4.93;;;2.87;;
15151;SDS011;7676;50.900;6.234;2022-08-11T20:27:47;3.17;;;2.87;;
15151;SDS011;7676;50.900;6.234;2022-08-11T20:33:09;4.17;;;3.17;;
15151;SDS011;7676;50.900;6.234;2022-08-11T20:38:30;4.23;;;3.07;;
15151;SDS011;7676;50.900;6.234;2022-08-11T20:43:52;5.60;;;2.87;;
15151;SDS011;7676;50.900;6.234;2022-08-11T20:49:15;5.00;;;3.00;;
15151;SDS011;7676;50.900;6.234;2022-08-11T20:54:52;4.43;;;3.00;;
15151;SDS011;7676;50.900;6.234;2022-08-11T21:00:26;5.50;;;3.13;;
15151;SDS011;7676;50.900;6.234;2022-08-11T21:05:48;3.57;;;2.90;;
15151;SDS011;7676;50.900;6.234;2022-08-11T21:11:12;5.63;;;3.30;;
15151;SDS011;7676;50.900;6.234;2022-08-11T21:16:35;4.07;;;3.03;;
15151;SDS011;7676;50.900;6.234;2022-08-11T21:21:58;6.03;;;3.30;;
15151;SDS011;7676;50.900;6.234;2022-08-11T21:27:28;4.13;;;3.07;;
15151;SDS011;7676;50.900;6.234;2022-08-11T21:32:52;5.00;;;3.10;;
15151;SDS011;7676;50.900;6.234;2022-08-11T21:38:15;4.13;;;3.10;;
15151;SDS011;7676;50.900;6.234;2022-08-11T21:43:36;3.30;;;3.00;;
15151;SDS011;7676;50.900;6.234;2022-08-11T21:48:59;4.37;;;3.50;;
15151;SDS011;7676;50.900;6.234;2022-08-11T21:54:22;4.60;;;3.77;;
15151;SDS011;7676;50.900;6.234;2022-08-11T21:59:51;6.57;;;3.40;;
15151;SDS011;7676;50.900;6.234;2022-08-11T22:05:15;7.87;;;3.53;;
15151;SDS011;7676;50.900;6.234;2022-08-11T22:10:37;6.17;;;3.20;;
15151;SDS011;7676;50.900;6.234;2022-08-11T22:15:58;4.63;;;3.47;;
15151;SDS011;7676;50.900;6.234;2022-08-11T22:21:19;5.17;;;2.87;;
15151;SDS011;7676;50.900;6.234;2022-08-11T22:27:02;3.73;;;3.30;;
15151;SDS011;7676;50.900;6.234;2022-08-11T22:32:23;4.60;;;3.07;;
15151;SDS011;7676;50.900;6.234;2022-08-11T22:37:45;3.77;;;3.30;;
15151;SDS011;7676;50.900;6.234;2022-08-11T22:43:07;3.60;;;3.20;;
15151;SDS011;7676;50.900;6.234;2022-08-11T22:48:29;3.77;;;3.47;;
15151;SDS011;7676;50.900;6.234;2022-08-11T22:53:50;6.53;;;3.23;;
15151;SDS011;7676;50.900;6.234;2022-08-11T22:59:13;5.73;;;3.77;;
15151;SDS011;7676;50.900;6.234;2022-08-11T23:04:36;3.47;;;3.17;;
15151;SDS011;7676;50.900;6.234;2022-08-11T23:09:58;3.77;;;3.47;;
15151;SDS011;7676;50.900;6.234;2022-08-11T23:15:19;4.57;;;3.83;;
15151;SDS011;7676;50.900;6.234;2022-08-11T23:20:43;6.07;;;3.90;;
15151;SDS011;7676;50.900;6.234;2022-08-11T23:26:05;4.53;;;3.83;;
15151;SDS011;7676;50.900;6.234;2022-08-11T23:31:31;4.13;;;3.73;;
15151;SDS011;7676;50.900;6.234;2022-08-11T23:36:54;6.70;;;3.80;;
15151;SDS011;7676;50.900;6.234;2022-08-11T23:42:15;4.50;;;3.57;;
15151;SDS011;7676;50.900;6.234;2022-08-11T23:47:37;3.90;;;3.53;;
15151;SDS011;7676;50.900;6.234;2022-08-11T23:53:01;4.30;;;3.83;;
15151;SDS011;7676;50.900;6.234;2022-08-11T23:58:22;4.30;;;3.70;;
